Terminal Aerodrome Forecast
Issued by NWS Goodland, KS

Home | Current Version | Previous Version | Text Only | Print | Product List | Glossary On
Versions: 1 2 3 4 5 6 7 8 9 10 11 12 13
149
FTUS43 KGLD 240956 AAA
TAFGLD
TAF AMD
KGLD 240956Z 2410/2506 18018KT P6SM SKC WS020/19050KT
     FM241100 22014G22KT P6SM SCT270 WS020/27035KT
     FM241200 23013KT P6SM SCT270
     FM241400 29016G25KT P6SM SCT270
     FM241700 33016G26KT P6SM FEW250
     FM242000 33011KT P6SM SCT200
     FM242300 04007KT P6SM FEW080 BKN150
     FM250100 07006KT P6SM BKN130=

USA.gov is the U.S. government's official web portal to all federal, state and local government web resources and services.